PWSweather.com
Personal Weather Stations
Station Observations
SEVNO44
Sevno, PrimskovoSI 1276

SevnoPrimskovoSI 1276

Lat: 45.9796285, Lon: 14.924044999999978

Elevation: 1706.0368

Station Type: WS-2307

www.primskovo.eu/vreme

High Low Average
Temperature 64.2°F17.9°C 57.0°F13.9°C 60.1°F15.6°C
Dew Point 60.1°F15.6°C 55.0°F12.8°C 57.5°F14.2°C
Winds 2.3 mph 3.7 kmh Calm Calm Calm SECalm SE
Wind Gusts 7.4 mph11.9 kmh -- 2.0 mph3.2 kmh
Humidity 93% 82% 91%
Pressure 30.06 in1017.9 mb 29.93 in1013.5 mb -
Precipitation 2.04 in51.8 mm - -
Hour Temp Dew Point Humidity Winds Wind Gusts Pressure Precip Precip Rate Daily Precip Total
12:00 AM 64.2°F17.9°C 58.6°F14.8°C 82% 0.5 mph S0.8 kmh S 2.5 mph4.0 kmh 29.94 in1013.9 mb 0.02 in0.5 mm 0.00 in0.0 mm 0.02 in0.5 mm
12:05 AM 64.0°F17.8°C 58.4°F14.7°C 82% 0.8 mph SSE1.3 kmh SSE 6.0 mph9.7 kmh 29.94 in1013.9 mb 0.02 in0.5 mm 0.00 in0.0 mm 0.02 in0.5 mm
12:10 AM 64.0°F17.8°C 58.8°F14.9°C 83% 1.2 mph SE1.9 kmh SE 6.0 mph9.7 kmh 29.94 in1013.9 mb 0.02 in0.5 mm 0.00 in0.0 mm 0.02 in0.5 mm
12:15 AM 63.7°F17.6°C 58.1°F14.5°C 82% 0.8 mph E1.3 kmh E 3.6 mph5.8 kmh 29.95 in1014.2 mb 0.02 in0.5 mm 0.00 in0.0 mm 0.02 in0.5 mm
12:20 AM 63.7°F17.6°C 58.1°F14.5°C 82% 0.8 mph S1.3 kmh S 3.4 mph5.5 kmh 29.94 in1013.9 mb 0.02 in0.5 mm 0.00 in0.0 mm 0.02 in0.5 mm
12:25 AM 63.5°F17.5°C 58.2°F14.6°C 83% 1.2 mph S1.9 kmh S 3.4 mph5.5 kmh 29.94 in1013.9 mb 0.02 in0.5 mm 0.00 in0.0 mm 0.02 in0.5 mm
12:30 AM 63.3°F17.4°C 58.4°F14.7°C 84% 2.3 mph SSE3.7 kmh SSE 6.7 mph10.8 kmh 29.95 in1014.2 mb 0.04 in1.0 mm 0.24 in6.1 mm 0.04 in1.0 mm
12:35 AM 63.1°F17.3°C 58.2°F14.6°C 84% 2.3 mph SSE3.7 kmh SSE 6.7 mph10.8 kmh 29.95 in1014.2 mb 0.04 in1.0 mm 0.00 in0.0 mm 0.04 in1.0 mm
12:40 AM 63.0°F17.2°C 58.4°F14.7°C 85% 1.2 mph SSE1.9 kmh SSE 5.1 mph8.2 kmh 29.96 in1014.6 mb 0.02 in0.5 mm 0.00 in0.0 mm 0.04 in1.0 mm
12:45 AM 62.8°F17.1°C 58.5°F14.7°C 86% 1.1 mph SE1.8 kmh SE 5.1 mph8.2 kmh 29.96 in1014.6 mb 0.02 in0.5 mm 0.00 in0.0 mm 0.04 in1.0 mm
12:50 AM 62.4°F16.9°C 58.2°F14.6°C 86% 1.3 mph ESE2.1 kmh ESE 4.0 mph6.4 kmh 29.96 in1014.6 mb 0.02 in0.5 mm 0.00 in0.0 mm 0.04 in1.0 mm
12:55 AM 62.4°F16.9°C 58.2°F14.6°C 86% 0.7 mph SE1.1 kmh SE 4.0 mph6.4 kmh 29.95 in1014.2 mb 0.02 in0.5 mm 0.00 in0.0 mm 0.04 in1.0 mm
01:05 AM 62.2°F16.8°C 58.0°F14.4°C 86% Calm Calm -- 29.95 in1014.2 mb 0.04 in1.0 mm 0.02 in0.5 mm 0.06 in1.5 mm
01:10 AM 62.2°F16.8°C 58.0°F14.4°C 86% Calm Calm -- 29.95 in1014.2 mb 0.06 in1.5 mm 0.24 in6.1 mm 0.08 in2.0 mm
01:15 AM 62.1°F16.7°C 57.8°F14.3°C 86% 0.1 mph NE0.2 kmh NE 2.5 mph4.0 kmh 29.94 in1013.9 mb 0.10 in2.5 mm 0.48 in12.2 mm 0.12 in3.0 mm
01:20 AM 61.9°F16.6°C 57.6°F14.2°C 86% 0.3 mph ENE0.5 kmh ENE 2.5 mph4.0 kmh 29.94 in1013.9 mb 0.12 in3.0 mm 0.24 in6.1 mm 0.14 in3.6 mm
01:25 AM 61.9°F16.6°C 57.6°F14.2°C 86% 0.1 mph E0.2 kmh E 2.5 mph4.0 kmh 29.94 in1013.9 mb 0.15 in3.8 mm 0.36 in9.1 mm 0.16 in4.1 mm
01:30 AM 61.7°F16.5°C 57.8°F14.3°C 87% 0.1 mph ENE0.2 kmh ENE 1.3 mph2.1 kmh 29.94 in1013.9 mb 0.14 in3.6 mm 0.00 in0.0 mm 0.18 in4.6 mm
01:35 AM 61.5°F16.4°C 57.6°F14.2°C 87% 0.1 mph ENE0.2 kmh ENE 1.3 mph2.1 kmh 29.94 in1013.9 mb 0.16 in4.1 mm 0.24 in6.1 mm 0.20 in5.1 mm
01:40 AM 61.5°F16.4°C 57.3°F14.1°C 86% Calm Calm -- 29.95 in1014.2 mb 0.16 in4.1 mm 0.00 in0.0 mm 0.20 in5.1 mm
01:45 AM 61.3°F16.3°C 57.1°F13.9°C 86% Calm Calm -- 29.95 in1014.2 mb 0.18 in4.6 mm 0.24 in6.1 mm 0.22 in5.6 mm
01:50 AM 61.3°F16.3°C 57.1°F13.9°C 86% 0.5 mph WNW0.8 kmh WNW 3.6 mph5.8 kmh 29.95 in1014.2 mb 0.18 in4.6 mm 0.00 in0.0 mm 0.22 in5.6 mm
01:55 AM 61.2°F16.2°C 57.3°F14.1°C 87% 1.0 mph WNW1.6 kmh WNW 3.6 mph5.8 kmh 29.95 in1014.2 mb 0.20 in5.1 mm 0.24 in6.1 mm 0.24 in6.1 mm
02:05 AM 61.0°F16.1°C 57.4°F14.1°C 88% 1.6 mph WNW2.6 kmh WNW 3.8 mph6.1 kmh 29.95 in1014.2 mb 0.26 in6.6 mm 0.07 in1.8 mm 0.33 in8.4 mm
02:10 AM 61.0°F16.1°C 57.4°F14.1°C 88% 1.0 mph WNW1.6 kmh WNW 4.0 mph6.4 kmh 29.95 in1014.2 mb 0.31 in7.9 mm 0.60 in15.2 mm 0.39 in9.9 mm
02:15 AM 61.0°F16.1°C 57.4°F14.1°C 88% 1.2 mph WNW1.9 kmh WNW 4.7 mph7.6 kmh 29.95 in1014.2 mb 0.39 in9.9 mm 0.96 in24.4 mm 0.51 in13.0 mm
02:20 AM 60.8°F16.0°C 57.2°F14.0°C 88% 1.4 mph NW2.3 kmh NW 4.7 mph7.6 kmh 29.95 in1014.2 mb 0.49 in12.4 mm 1.20 in30.5 mm 0.63 in16.0 mm
02:25 AM 60.6°F15.9°C 57.0°F13.9°C 88% 0.6 mph NNW1.0 kmh NNW 2.9 mph4.7 kmh 29.95 in1014.2 mb 0.57 in14.5 mm 0.96 in24.4 mm 0.73 in18.5 mm
02:30 AM 60.6°F15.9°C 57.4°F14.1°C 89% 0.3 mph NNE0.5 kmh NNE 2.9 mph4.7 kmh 29.95 in1014.2 mb 0.59 in15.0 mm 0.24 in6.1 mm 0.77 in19.6 mm
02:35 AM 60.6°F15.9°C 57.4°F14.1°C 89% 0.3 mph W0.5 kmh W 3.1 mph5.0 kmh 29.95 in1014.2 mb 0.59 in15.0 mm 0.00 in0.0 mm 0.80 in20.3 mm
02:40 AM 60.4°F15.8°C 57.2°F14.0°C 89% 0.2 mph WSW0.3 kmh WSW 3.1 mph5.0 kmh 29.95 in1014.2 mb 0.59 in15.0 mm 0.00 in0.0 mm 0.80 in20.3 mm
02:45 AM 60.4°F15.8°C 57.2°F14.0°C 89% Calm Calm 0.9 mph1.4 kmh 29.94 in1013.9 mb 0.59 in15.0 mm 0.00 in0.0 mm 0.82 in20.8 mm
02:50 AM 60.4°F15.8°C 57.2°F14.0°C 89% Calm Calm -- 29.94 in1013.9 mb 0.59 in15.0 mm 0.00 in0.0 mm 0.82 in20.8 mm
02:55 AM 60.4°F15.8°C 57.2°F14.0°C 89% 0.1 mph WNW0.2 kmh WNW 1.3 mph2.1 kmh 29.94 in1013.9 mb 0.59 in15.0 mm 0.00 in0.0 mm 0.84 in21.3 mm
03:05 AM 60.4°F15.8°C 57.2°F14.0°C 89% Calm Calm -- 29.95 in1014.2 mb 0.49 in12.4 mm 0.00 in0.0 mm 0.84 in21.3 mm
03:10 AM 60.4°F15.8°C 57.2°F14.0°C 89% Calm Calm -- 29.95 in1014.2 mb 0.45 in11.4 mm 0.00 in0.0 mm 0.86 in21.8 mm
03:15 AM 60.4°F15.8°C 57.2°F14.0°C 89% Calm Calm -- 29.95 in1014.2 mb 0.33 in8.4 mm 0.00 in0.0 mm 0.86 in21.8 mm
03:20 AM 60.4°F15.8°C 57.2°F14.0°C 89% Calm Calm -- 29.95 in1014.2 mb 0.20 in5.1 mm 0.00 in0.0 mm 0.88 in22.4 mm
03:25 AM 60.4°F15.8°C 57.2°F14.0°C 89% Calm Calm -- 29.95 in1014.2 mb 0.14 in3.6 mm 0.00 in0.0 mm 0.88 in22.4 mm
03:30 AM 60.3°F15.7°C 57.0°F13.9°C 89% Calm Calm -- 29.94 in1013.9 mb 0.12 in3.0 mm 0.00 in0.0 mm 0.90 in22.9 mm
03:35 AM 60.1°F15.6°C 56.8°F13.8°C 89% Calm Calm -- 29.94 in1013.9 mb 0.10 in2.5 mm 0.00 in0.0 mm 0.90 in22.9 mm
03:40 AM 60.1°F15.6°C 56.8°F13.8°C 89% Calm Calm 0.7 mph1.1 kmh 29.94 in1013.9 mb 0.12 in3.0 mm 0.24 in6.1 mm 0.92 in23.4 mm
03:45 AM 60.1°F15.6°C 56.8°F13.8°C 89% Calm Calm 0.7 mph1.1 kmh 29.94 in1013.9 mb 0.10 in2.5 mm 0.00 in0.0 mm 0.92 in23.4 mm
03:50 AM 59.9°F15.5°C 56.6°F13.7°C 89% Calm Calm -- 29.94 in1013.9 mb 0.12 in3.0 mm 0.24 in6.1 mm 0.94 in23.9 mm
03:55 AM 59.7°F15.4°C 56.5°F13.6°C 89% 0.1 mph E0.2 kmh E 2.9 mph4.7 kmh 29.93 in1013.5 mb 0.10 in2.5 mm 0.00 in0.0 mm 0.94 in23.9 mm
04:05 AM 59.5°F15.3°C 56.3°F13.5°C 89% Calm Calm 0.9 mph1.4 kmh 29.94 in1013.9 mb 0.10 in2.5 mm 0.00 in0.0 mm 0.94 in23.9 mm
04:10 AM 59.5°F15.3°C 56.3°F13.5°C 89% 0.1 mph SW0.2 kmh SW 1.8 mph2.9 kmh 29.94 in1013.9 mb 0.08 in2.0 mm 0.00 in0.0 mm 0.94 in23.9 mm
04:15 AM 59.5°F15.3°C 56.3°F13.5°C 89% 0.3 mph WSW0.5 kmh WSW 2.7 mph4.3 kmh 29.95 in1014.2 mb 0.10 in2.5 mm 0.24 in6.1 mm 0.96 in24.4 mm
04:20 AM 59.5°F15.3°C 56.6°F13.7°C 90% 0.5 mph SW0.8 kmh SW 2.7 mph4.3 kmh 29.95 in1014.2 mb 0.10 in2.5 mm 0.00 in0.0 mm 0.98 in24.9 mm
04:25 AM 59.5°F15.3°C 56.6°F13.7°C 90% 2.0 mph SE3.2 kmh SE 7.4 mph11.9 kmh 29.95 in1014.2 mb 0.16 in4.1 mm 0.72 in18.3 mm 1.04 in26.4 mm
04:30 AM 59.4°F15.2°C 56.4°F13.6°C 90% 2.3 mph SE3.7 kmh SE 7.4 mph11.9 kmh 29.95 in1014.2 mb 0.19 in4.8 mm 0.36 in9.1 mm 1.08 in27.4 mm
04:35 AM 59.2°F15.1°C 56.2°F13.4°C 90% 1.0 mph SE1.6 kmh SE 6.0 mph9.7 kmh 29.95 in1014.2 mb 0.20 in5.1 mm 0.12 in3.0 mm 1.10 in27.9 mm
04:40 AM 58.8°F14.9°C 55.9°F13.3°C 90% 0.4 mph SE0.6 kmh SE 4.0 mph6.4 kmh 29.96 in1014.6 mb 0.22 in5.6 mm 0.24 in6.1 mm 1.14 in29.0 mm
04:45 AM 58.8°F14.9°C 55.9°F13.3°C 90% 0.3 mph SSE0.5 kmh SSE 1.8 mph2.9 kmh 29.96 in1014.6 mb 0.27 in6.9 mm 0.60 in15.2 mm 1.18 in30.0 mm
04:50 AM 58.8°F14.9°C 55.9°F13.3°C 90% 0.4 mph SSE0.6 kmh SSE 2.7 mph4.3 kmh 29.96 in1014.6 mb 0.31 in7.9 mm 0.48 in12.2 mm 1.24 in31.5 mm
04:55 AM 58.8°F14.9°C 55.9°F13.3°C 90% 1.3 mph S2.1 kmh S 3.8 mph6.1 kmh 29.96 in1014.6 mb 0.35 in8.9 mm 0.48 in12.2 mm 1.28 in32.5 mm
05:05 AM 58.3°F14.6°C 55.7°F13.2°C 91% 0.7 mph ENE1.1 kmh ENE 3.1 mph5.0 kmh 29.95 in1014.2 mb 0.47 in11.9 mm 0.14 in3.6 mm 1.41 in35.8 mm
05:10 AM 58.1°F14.5°C 55.2°F12.9°C 90% 0.5 mph ENE0.8 kmh ENE 3.1 mph5.0 kmh 29.96 in1014.6 mb 0.49 in12.4 mm 0.24 in6.1 mm 1.43 in36.3 mm
05:15 AM 57.9°F14.4°C 55.3°F12.9°C 91% 0.2 mph E0.3 kmh E 2.9 mph4.7 kmh 29.95 in1014.2 mb 0.49 in12.4 mm 0.00 in0.0 mm 1.45 in36.8 mm
05:20 AM 57.9°F14.4°C 55.3°F12.9°C 91% 0.2 mph E0.3 kmh E 2.9 mph4.7 kmh 29.95 in1014.2 mb 0.47 in11.9 mm 0.00 in0.0 mm 1.47 in37.3 mm
05:25 AM 57.9°F14.4°C 55.3°F12.9°C 91% 0.3 mph E0.5 kmh E 2.9 mph4.7 kmh 29.95 in1014.2 mb 0.43 in10.9 mm 0.00 in0.0 mm 1.49 in37.8 mm
05:30 AM 57.7°F14.3°C 55.1°F12.8°C 91% 0.4 mph E0.6 kmh E 3.1 mph5.0 kmh 29.95 in1014.2 mb 0.41 in10.4 mm 0.00 in0.0 mm 1.49 in37.8 mm
05:35 AM 57.7°F14.3°C 55.1°F12.8°C 91% 0.2 mph E0.3 kmh E 3.1 mph5.0 kmh 29.95 in1014.2 mb 0.41 in10.4 mm 0.00 in0.0 mm 1.51 in38.4 mm
05:40 AM 57.7°F14.3°C 55.1°F12.8°C 91% 0.1 mph E0.2 kmh E 2.0 mph3.2 kmh 29.95 in1014.2 mb 0.37 in9.4 mm 0.00 in0.0 mm 1.51 in38.4 mm
05:45 AM 57.6°F14.2°C 55.0°F12.8°C 91% 0.1 mph SE0.2 kmh SE 2.0 mph3.2 kmh 29.95 in1014.2 mb 0.31 in7.9 mm 0.00 in0.0 mm 1.51 in38.4 mm
05:50 AM 57.6°F14.2°C 55.0°F12.8°C 91% 0.2 mph S0.3 kmh S 2.7 mph4.3 kmh 29.95 in1014.2 mb 0.25 in6.4 mm 0.00 in0.0 mm 1.51 in38.4 mm
05:55 AM 57.6°F14.2°C 55.0°F12.8°C 91% 0.3 mph SSE0.5 kmh SSE 2.7 mph4.3 kmh 29.96 in1014.6 mb 0.22 in5.6 mm 0.00 in0.0 mm 1.53 in38.9 mm
06:00 AM 57.6°F14.2°C 55.0°F12.8°C 91% 0.7 mph S1.1 kmh S 4.0 mph6.4 kmh 29.96 in1014.6 mb 0.20 in5.1 mm 0.00 in0.0 mm 1.55 in39.4 mm
06:05 AM 57.6°F14.2°C 55.0°F12.8°C 91% 1.1 mph SSE1.8 kmh SSE 4.0 mph6.4 kmh 29.95 in1014.2 mb 0.14 in3.6 mm 0.00 in0.0 mm 1.55 in39.4 mm
06:10 AM 57.6°F14.2°C 55.0°F12.8°C 91% 0.5 mph SE0.8 kmh SE 2.5 mph4.0 kmh 29.94 in1013.9 mb 0.16 in4.1 mm 0.24 in6.1 mm 1.59 in40.4 mm
06:15 AM 57.6°F14.2°C 55.0°F12.8°C 91% 0.4 mph SW0.6 kmh SW 2.5 mph4.0 kmh 29.95 in1014.2 mb 0.16 in4.1 mm 0.00 in0.0 mm 1.61 in40.9 mm
06:20 AM 57.6°F14.2°C 55.0°F12.8°C 91% 0.5 mph SW0.8 kmh SW 2.5 mph4.0 kmh 29.95 in1014.2 mb 0.14 in3.6 mm 0.00 in0.0 mm 1.61 in40.9 mm
06:25 AM 57.7°F14.3°C 55.1°F12.8°C 91% 0.2 mph S0.3 kmh S 1.6 mph2.6 kmh 29.95 in1014.2 mb 0.12 in3.0 mm 0.00 in0.0 mm 1.61 in40.9 mm
06:30 AM 57.7°F14.3°C 55.1°F12.8°C 91% 0.1 mph S0.2 kmh S 1.6 mph2.6 kmh 29.95 in1014.2 mb 0.10 in2.5 mm 0.00 in0.0 mm 1.61 in40.9 mm
06:35 AM 57.7°F14.3°C 55.1°F12.8°C 91% Calm Calm 1.1 mph1.8 kmh 29.95 in1014.2 mb 0.10 in2.5 mm 0.00 in0.0 mm 1.61 in40.9 mm
06:40 AM 57.7°F14.3°C 55.1°F12.8°C 91% Calm Calm -- 29.95 in1014.2 mb 0.10 in2.5 mm 0.00 in0.0 mm 1.61 in40.9 mm
06:45 AM 57.7°F14.3°C 55.1°F12.8°C 91% Calm Calm -- 29.95 in1014.2 mb 0.12 in3.0 mm 0.24 in6.1 mm 1.63 in41.4 mm
06:50 AM 57.7°F14.3°C 55.1°F12.8°C 91% Calm Calm -- 29.96 in1014.6 mb 0.12 in3.0 mm 0.00 in0.0 mm 1.63 in41.4 mm
06:55 AM 57.7°F14.3°C 55.4°F13.0°C 92% Calm Calm -- 29.96 in1014.6 mb 0.10 in2.5 mm 0.00 in0.0 mm 1.63 in41.4 mm
07:00 AM 57.7°F14.3°C 55.4°F13.0°C 92% Calm Calm -- 29.96 in1014.6 mb 0.08 in2.0 mm 0.00 in0.0 mm 1.63 in41.4 mm
07:05 AM 57.7°F14.3°C 55.4°F13.0°C 92% Calm Calm -- 29.96 in1014.6 mb 0.08 in2.0 mm 0.00 in0.0 mm 1.63 in41.4 mm
07:10 AM 57.7°F14.3°C 55.1°F12.8°C 91% Calm Calm -- 29.96 in1014.6 mb 0.04 in1.0 mm 0.00 in0.0 mm 1.63 in41.4 mm
07:15 AM 57.7°F14.3°C 55.1°F12.8°C 91% Calm Calm -- 29.96 in1014.6 mb 0.02 in0.5 mm 0.00 in0.0 mm 1.63 in41.4 mm
07:20 AM 57.7°F14.3°C 55.1°F12.8°C 91% Calm Calm -- 29.96 in1014.6 mb 0.02 in0.5 mm 0.00 in0.0 mm 1.63 in41.4 mm
07:25 AM 57.7°F14.3°C 55.1°F12.8°C 91% Calm Calm 0.7 mph1.1 kmh 29.96 in1014.6 mb 0.04 in1.0 mm 0.24 in6.1 mm 1.65 in41.9 mm
07:30 AM 57.7°F14.3°C 55.4°F13.0°C 92% 0.1 mph S0.2 kmh S 1.3 mph2.1 kmh 29.97 in1014.9 mb 0.04 in1.0 mm 0.00 in0.0 mm 1.65 in41.9 mm
07:35 AM 57.7°F14.3°C 55.4°F13.0°C 92% 0.1 mph S0.2 kmh S 1.3 mph2.1 kmh 29.96 in1014.6 mb 0.04 in1.0 mm 0.00 in0.0 mm 1.65 in41.9 mm
07:40 AM 57.7°F14.3°C 55.4°F13.0°C 92% 0.1 mph S0.2 kmh S 1.3 mph2.1 kmh 29.96 in1014.6 mb 0.06 in1.5 mm 0.24 in6.1 mm 1.67 in42.4 mm
07:45 AM 57.7°F14.3°C 55.4°F13.0°C 92% Calm Calm 1.3 mph2.1 kmh 29.96 in1014.6 mb 0.06 in1.5 mm 0.00 in0.0 mm 1.69 in42.9 mm
07:50 AM 57.7°F14.3°C 55.4°F13.0°C 92% Calm Calm -- 29.96 in1014.6 mb 0.08 in2.0 mm 0.24 in6.1 mm 1.71 in43.4 mm
07:55 AM 57.9°F14.4°C 55.6°F13.1°C 92% Calm Calm -- 29.96 in1014.6 mb 0.10 in2.5 mm 0.24 in6.1 mm 1.73 in43.9 mm
08:00 AM 57.9°F14.4°C 55.6°F13.1°C 92% Calm Calm 0.9 mph1.4 kmh 29.96 in1014.6 mb 0.10 in2.5 mm 0.00 in0.0 mm 1.73 in43.9 mm
08:05 AM 58.1°F14.5°C 55.8°F13.2°C 92% Calm Calm 0.9 mph1.4 kmh 29.96 in1014.6 mb 0.10 in2.5 mm 0.00 in0.0 mm 1.73 in43.9 mm
08:10 AM 58.1°F14.5°C 55.8°F13.2°C 92% Calm Calm -- 29.96 in1014.6 mb 0.10 in2.5 mm 0.00 in0.0 mm 1.73 in43.9 mm
08:15 AM 58.1°F14.5°C 55.8°F13.2°C 92% Calm Calm -- 29.96 in1014.6 mb 0.10 in2.5 mm 0.00 in0.0 mm 1.73 in43.9 mm
08:20 AM 58.3°F14.6°C 56.0°F13.3°C 92% Calm Calm -- 29.96 in1014.6 mb 0.12 in3.0 mm 0.24 in6.1 mm 1.75 in44.5 mm
08:25 AM 58.3°F14.6°C 56.0°F13.3°C 92% Calm Calm -- 29.96 in1014.6 mb 0.10 in2.5 mm 0.00 in0.0 mm 1.75 in44.5 mm
08:30 AM 58.3°F14.6°C 56.0°F13.3°C 92% Calm Calm -- 29.96 in1014.6 mb 0.10 in2.5 mm 0.00 in0.0 mm 1.75 in44.5 mm
08:35 AM 58.5°F14.7°C 56.1°F13.4°C 92% Calm Calm -- 29.96 in1014.6 mb 0.10 in2.5 mm 0.00 in0.0 mm 1.75 in44.5 mm
08:40 AM 58.5°F14.7°C 56.1°F13.4°C 92% Calm Calm -- 29.96 in1014.6 mb 0.08 in2.0 mm 0.00 in0.0 mm 1.75 in44.5 mm
08:45 AM 58.5°F14.7°C 56.1°F13.4°C 92% Calm Calm -- 29.96 in1014.6 mb 0.06 in1.5 mm 0.00 in0.0 mm 1.75 in44.5 mm
08:50 AM 58.5°F14.7°C 56.1°F13.4°C 92% Calm Calm -- 29.96 in1014.6 mb 0.04 in1.0 mm 0.00 in0.0 mm 1.75 in44.5 mm
08:55 AM 58.5°F14.7°C 56.1°F13.4°C 92% Calm Calm -- 29.96 in1014.6 mb 0.02 in0.5 mm 0.00 in0.0 mm 1.75 in44.5 mm
09:00 AM 58.3°F14.6°C 56.0°F13.3°C 92% Calm Calm -- 29.96 in1014.6 mb 0.02 in0.5 mm 0.00 in0.0 mm 1.75 in44.5 mm
09:05 AM 58.5°F14.7°C 56.1°F13.4°C 92% 0.2 mph WNW0.3 kmh WNW 2.5 mph4.0 kmh 29.96 in1014.6 mb 0.02 in0.5 mm 0.00 in0.0 mm 1.75 in44.5 mm
09:10 AM 58.5°F14.7°C 56.1°F13.4°C 92% 0.3 mph WNW0.5 kmh WNW 2.5 mph4.0 kmh 29.96 in1014.6 mb 0.02 in0.5 mm 0.00 in0.0 mm 1.75 in44.5 mm
09:15 AM 58.6°F14.8°C 56.3°F13.5°C 92% 0.1 mph WNW0.2 kmh WNW 2.0 mph3.2 kmh 29.96 in1014.6 mb 0.02 in0.5 mm 0.00 in0.0 mm 1.75 in44.5 mm
09:20 AM 58.6°F14.8°C 56.3°F13.5°C 92% Calm Calm 0.9 mph1.4 kmh 29.96 in1014.6 mb 0.02 in0.5 mm 0.00 in0.0 mm 1.77 in45.0 mm
09:25 AM 58.8°F14.9°C 56.5°F13.6°C 92% Calm Calm 0.9 mph1.4 kmh 29.96 in1014.6 mb 0.02 in0.5 mm 0.00 in0.0 mm 1.77 in45.0 mm
09:30 AM 58.8°F14.9°C 56.5°F13.6°C 92% 0.1 mph W0.2 kmh W 2.0 mph3.2 kmh 29.96 in1014.6 mb 0.02 in0.5 mm 0.00 in0.0 mm 1.77 in45.0 mm
09:35 AM 59.0°F15.0°C 56.7°F13.7°C 92% 0.2 mph WSW0.3 kmh WSW 2.0 mph3.2 kmh 29.96 in1014.6 mb 0.02 in0.5 mm 0.00 in0.0 mm 1.77 in45.0 mm
09:40 AM 59.2°F15.1°C 56.9°F13.8°C 92% 0.1 mph WSW0.2 kmh WSW 1.8 mph2.9 kmh 29.96 in1014.6 mb 0.02 in0.5 mm 0.00 in0.0 mm 1.77 in45.0 mm
09:45 AM 59.4°F15.2°C 57.0°F13.9°C 92% Calm Calm -- 29.96 in1014.6 mb 0.02 in0.5 mm 0.00 in0.0 mm 1.77 in45.0 mm
09:50 AM 59.4°F15.2°C 57.0°F13.9°C 92% Calm Calm -- 29.96 in1014.6 mb 0.02 in0.5 mm 0.00 in0.0 mm 1.77 in45.0 mm
09:55 AM 59.5°F15.3°C 57.2°F14.0°C 92% Calm Calm 0.7 mph1.1 kmh 29.96 in1014.6 mb 0.02 in0.5 mm 0.00 in0.0 mm 1.77 in45.0 mm
10:00 AM 59.5°F15.3°C 57.2°F14.0°C 92% 0.1 mph WSW0.2 kmh WSW 1.3 mph2.1 kmh 29.97 in1014.9 mb 0.02 in0.5 mm 0.00 in0.0 mm 1.77 in45.0 mm
10:05 AM 59.7°F15.4°C 57.4°F14.1°C 92% 0.2 mph WSW0.3 kmh WSW 2.0 mph3.2 kmh 29.97 in1014.9 mb 0.02 in0.5 mm 0.00 in0.0 mm 1.77 in45.0 mm
10:10 AM 59.7°F15.4°C 57.4°F14.1°C 92% 0.1 mph W0.2 kmh W 2.0 mph3.2 kmh 29.97 in1014.9 mb 0.02 in0.5 mm 0.00 in0.0 mm 1.77 in45.0 mm
10:15 AM 59.7°F15.4°C 57.4°F14.1°C 92% Calm Calm 1.8 mph2.9 kmh 29.96 in1014.6 mb 0.00 in0.0 mm 0.00 in0.0 mm 1.77 in45.0 mm
10:20 AM 59.9°F15.5°C 57.6°F14.2°C 92% Calm Calm 1.1 mph1.8 kmh 29.97 in1014.9 mb 0.00 in0.0 mm 0.00 in0.0 mm 1.77 in45.0 mm
10:25 AM 60.1°F15.6°C 57.7°F14.3°C 92% 0.4 mph WSW0.6 kmh WSW 2.5 mph4.0 kmh 29.97 in1014.9 mb 0.00 in0.0 mm 0.00 in0.0 mm 1.77 in45.0 mm
10:30 AM 59.9°F15.5°C 57.6°F14.2°C 92% 0.5 mph WSW0.8 kmh WSW 2.5 mph4.0 kmh 29.97 in1014.9 mb 0.00 in0.0 mm 0.00 in0.0 mm 1.77 in45.0 mm
10:35 AM 59.7°F15.4°C 57.4°F14.1°C 92% 0.2 mph W0.3 kmh W 2.5 mph4.0 kmh 29.97 in1014.9 mb 0.00 in0.0 mm 0.00 in0.0 mm 1.77 in45.0 mm
10:40 AM 59.9°F15.5°C 57.6°F14.2°C 92% 0.6 mph WNW1.0 kmh WNW 2.9 mph4.7 kmh 29.96 in1014.6 mb 0.00 in0.0 mm 0.00 in0.0 mm 1.77 in45.0 mm
10:45 AM 59.9°F15.5°C 57.6°F14.2°C 92% 0.6 mph WNW1.0 kmh WNW 2.9 mph4.7 kmh 29.97 in1014.9 mb 0.00 in0.0 mm 0.00 in0.0 mm 1.77 in45.0 mm
10:50 AM 60.1°F15.6°C 57.7°F14.3°C 92% 0.2 mph SW0.3 kmh SW 1.8 mph2.9 kmh 29.96 in1014.6 mb 0.00 in0.0 mm 0.00 in0.0 mm 1.77 in45.0 mm
10:55 AM 60.1°F15.6°C 57.7°F14.3°C 92% 0.2 mph SW0.3 kmh SW 1.8 mph2.9 kmh 29.97 in1014.9 mb 0.00 in0.0 mm 0.00 in0.0 mm 1.77 in45.0 mm
11:00 AM 60.4°F15.8°C 58.1°F14.5°C 92% Calm Calm -- 29.97 in1014.9 mb 0.00 in0.0 mm 0.00 in0.0 mm 1.77 in45.0 mm
11:05 AM 60.4°F15.8°C 58.1°F14.5°C 92% Calm Calm -- 29.97 in1014.9 mb 0.00 in0.0 mm 0.00 in0.0 mm 1.77 in45.0 mm
11:10 AM 60.6°F15.9°C 58.3°F14.6°C 92% Calm Calm -- 29.97 in1014.9 mb 0.00 in0.0 mm 0.00 in0.0 mm 1.77 in45.0 mm
11:15 AM 60.6°F15.9°C 58.3°F14.6°C 92% Calm Calm -- 29.97 in1014.9 mb 0.00 in0.0 mm 0.00 in0.0 mm 1.77 in45.0 mm
11:20 AM 60.6°F15.9°C 58.3°F14.6°C 92% Calm Calm -- 29.97 in1014.9 mb 0.00 in0.0 mm 0.00 in0.0 mm 1.77 in45.0 mm
11:25 AM 60.6°F15.9°C 58.3°F14.6°C 92% Calm Calm -- 29.97 in1014.9 mb 0.00 in0.0 mm 0.00 in0.0 mm 1.77 in45.0 mm
11:30 AM 60.6°F15.9°C 58.3°F14.6°C 92% Calm Calm -- 29.97 in1014.9 mb 0.00 in0.0 mm 0.00 in0.0 mm 1.77 in45.0 mm
11:35 AM 60.6°F15.9°C 58.3°F14.6°C 92% Calm Calm 1.3 mph2.1 kmh 29.97 in1014.9 mb 0.00 in0.0 mm 0.00 in0.0 mm 1.77 in45.0 mm
11:40 AM 60.6°F15.9°C 58.3°F14.6°C 92% Calm Calm 1.3 mph2.1 kmh 29.97 in1014.9 mb 0.00 in0.0 mm 0.00 in0.0 mm 1.77 in45.0 mm
11:45 AM 60.6°F15.9°C 58.3°F14.6°C 92% 0.1 mph SSW0.2 kmh SSW 1.3 mph2.1 kmh 29.96 in1014.6 mb 0.02 in0.5 mm 0.24 in6.1 mm 1.79 in45.5 mm
11:50 AM 60.6°F15.9°C 58.3°F14.6°C 92% 0.1 mph SSW0.2 kmh SSW 1.3 mph2.1 kmh 29.97 in1014.9 mb 0.02 in0.5 mm 0.00 in0.0 mm 1.79 in45.5 mm
11:55 AM 60.6°F15.9°C 58.3°F14.6°C 92% Calm Calm 1.3 mph2.1 kmh 29.97 in1014.9 mb 0.02 in0.5 mm 0.00 in0.0 mm 1.79 in45.5 mm
12:00 PM 60.6°F15.9°C 58.3°F14.6°C 92% 0.3 mph S0.5 kmh S 2.0 mph3.2 kmh 29.97 in1014.9 mb 0.02 in0.5 mm 0.00 in0.0 mm 1.79 in45.5 mm
12:05 PM 60.4°F15.8°C 58.1°F14.5°C 92% 0.3 mph S0.5 kmh S 2.0 mph3.2 kmh 29.97 in1014.9 mb 0.04 in1.0 mm 0.24 in6.1 mm 1.81 in46.0 mm
12:10 PM 60.6°F15.9°C 58.3°F14.6°C 92% Calm Calm 0.9 mph1.4 kmh 29.97 in1014.9 mb 0.04 in1.0 mm 0.00 in0.0 mm 1.81 in46.0 mm
12:15 PM 60.6°F15.9°C 58.3°F14.6°C 92% Calm Calm -- 29.96 in1014.6 mb 0.06 in1.5 mm 0.24 in6.1 mm 1.84 in46.7 mm
12:20 PM 60.4°F15.8°C 58.1°F14.5°C 92% 0.3 mph SW0.5 kmh SW 1.8 mph2.9 kmh 29.97 in1014.9 mb 0.06 in1.5 mm 0.00 in0.0 mm 1.84 in46.7 mm
12:25 PM 60.4°F15.8°C 58.1°F14.5°C 92% 0.6 mph SW1.0 kmh SW 2.2 mph3.5 kmh 29.97 in1014.9 mb 0.08 in2.0 mm 0.24 in6.1 mm 1.86 in47.2 mm
12:30 PM 60.4°F15.8°C 58.1°F14.5°C 92% 0.3 mph SW0.5 kmh SW 2.2 mph3.5 kmh 29.97 in1014.9 mb 0.08 in2.0 mm 0.00 in0.0 mm 1.86 in47.2 mm
12:35 PM 60.6°F15.9°C 58.3°F14.6°C 92% 0.1 mph SE0.2 kmh SE 1.6 mph2.6 kmh 29.96 in1014.6 mb 0.10 in2.5 mm 0.24 in6.1 mm 1.88 in47.8 mm
12:40 PM 60.6°F15.9°C 58.3°F14.6°C 92% 0.5 mph SE0.8 kmh SE 6.0 mph9.7 kmh 29.96 in1014.6 mb 0.10 in2.5 mm 0.00 in0.0 mm 1.88 in47.8 mm
12:45 PM 60.6°F15.9°C 58.3°F14.6°C 92% 0.5 mph SE0.8 kmh SE 6.0 mph9.7 kmh 29.96 in1014.6 mb 0.08 in2.0 mm 0.00 in0.0 mm 1.88 in47.8 mm
12:50 PM 61.0°F16.1°C 58.6°F14.8°C 92% 0.1 mph S0.2 kmh S 2.0 mph3.2 kmh 29.96 in1014.6 mb 0.08 in2.0 mm 0.00 in0.0 mm 1.88 in47.8 mm
12:55 PM 61.0°F16.1°C 58.6°F14.8°C 92% 0.2 mph SW0.3 kmh SW 2.0 mph3.2 kmh 29.96 in1014.6 mb 0.08 in2.0 mm 0.00 in0.0 mm 1.88 in47.8 mm
01:00 PM 61.2°F16.2°C 58.8°F14.9°C 92% 0.4 mph SE0.6 kmh SE 3.6 mph5.8 kmh 29.96 in1014.6 mb 0.08 in2.0 mm 0.00 in0.0 mm 1.88 in47.8 mm
01:05 PM 61.2°F16.2°C 58.8°F14.9°C 92% 0.3 mph ESE0.5 kmh ESE 3.6 mph5.8 kmh 29.96 in1014.6 mb 0.06 in1.5 mm 0.00 in0.0 mm 1.88 in47.8 mm
01:10 PM 61.2°F16.2°C 58.8°F14.9°C 92% 0.2 mph SE0.3 kmh SE 2.2 mph3.5 kmh 29.96 in1014.6 mb 0.06 in1.5 mm 0.00 in0.0 mm 1.88 in47.8 mm
01:15 PM 61.3°F16.3°C 59.0°F15.0°C 92% 0.2 mph SE0.3 kmh SE 2.2 mph3.5 kmh 29.96 in1014.6 mb 0.04 in1.0 mm 0.00 in0.0 mm 1.88 in47.8 mm
01:20 PM 61.7°F16.5°C 59.4°F15.2°C 92% 0.1 mph S0.2 kmh S 1.6 mph2.6 kmh 29.96 in1014.6 mb 0.04 in1.0 mm 0.00 in0.0 mm 1.88 in47.8 mm
01:25 PM 61.9°F16.6°C 59.5°F15.3°C 92% 0.4 mph S0.6 kmh S 2.7 mph4.3 kmh 29.96 in1014.6 mb 0.02 in0.5 mm 0.00 in0.0 mm 1.88 in47.8 mm
01:30 PM 61.9°F16.6°C 59.5°F15.3°C 92% 0.7 mph S1.1 kmh S 3.8 mph6.1 kmh 29.96 in1014.6 mb 0.02 in0.5 mm 0.00 in0.0 mm 1.88 in47.8 mm
01:35 PM 62.1°F16.7°C 59.7°F15.4°C 92% 0.4 mph S0.6 kmh S 3.8 mph6.1 kmh 29.95 in1014.2 mb 0.00 in0.0 mm 0.00 in0.0 mm 1.88 in47.8 mm
01:40 PM 62.2°F16.8°C 59.9°F15.5°C 92% 0.1 mph SE0.2 kmh SE 2.5 mph4.0 kmh 29.95 in1014.2 mb 0.00 in0.0 mm 0.00 in0.0 mm 1.88 in47.8 mm
01:45 PM 62.4°F16.9°C 60.1°F15.6°C 92% 0.6 mph SE1.0 kmh SE 3.6 mph5.8 kmh 29.96 in1014.6 mb 0.00 in0.0 mm 0.00 in0.0 mm 1.88 in47.8 mm
01:50 PM 62.2°F16.8°C 59.9°F15.5°C 92% 0.7 mph SE1.1 kmh SE 3.6 mph5.8 kmh 29.96 in1014.6 mb 0.00 in0.0 mm 0.00 in0.0 mm 1.88 in47.8 mm
01:55 PM 62.4°F16.9°C 60.1°F15.6°C 92% 0.4 mph SE0.6 kmh SE 3.4 mph5.5 kmh 29.96 in1014.6 mb 0.00 in0.0 mm 0.00 in0.0 mm 1.88 in47.8 mm
02:00 PM 62.2°F16.8°C 59.9°F15.5°C 92% 0.1 mph SE0.2 kmh SE 2.0 mph3.2 kmh 29.96 in1014.6 mb 0.00 in0.0 mm 0.00 in0.0 mm 1.88 in47.8 mm
02:05 PM 62.2°F16.8°C 59.9°F15.5°C 92% Calm Calm -- 29.96 in1014.6 mb 0.00 in0.0 mm 0.00 in0.0 mm 1.88 in47.8 mm
02:10 PM 62.1°F16.7°C 59.4°F15.2°C 91% Calm Calm -- 29.96 in1014.6 mb 0.00 in0.0 mm 0.00 in0.0 mm 1.88 in47.8 mm
02:15 PM 62.1°F16.7°C 59.4°F15.2°C 91% Calm Calm -- 29.96 in1014.6 mb 0.00 in0.0 mm 0.00 in0.0 mm 1.88 in47.8 mm
02:20 PM 62.1°F16.7°C 59.4°F15.2°C 91% Calm Calm -- 29.96 in1014.6 mb 0.00 in0.0 mm 0.00 in0.0 mm 1.88 in47.8 mm
02:25 PM 61.9°F16.6°C 59.2°F15.1°C 91% Calm Calm 1.8 mph2.9 kmh 29.96 in1014.6 mb 0.00 in0.0 mm 0.00 in0.0 mm 1.88 in47.8 mm
02:30 PM 61.9°F16.6°C 59.2°F15.1°C 91% 0.9 mph ESE1.4 kmh ESE 5.4 mph8.7 kmh 29.96 in1014.6 mb 0.00 in0.0 mm 0.00 in0.0 mm 1.88 in47.8 mm
02:35 PM 61.9°F16.6°C 59.2°F15.1°C 91% 1.2 mph ESE1.9 kmh ESE 5.4 mph8.7 kmh 29.96 in1014.6 mb 0.00 in0.0 mm 0.00 in0.0 mm 1.88 in47.8 mm
02:40 PM 61.7°F16.5°C 59.0°F15.0°C 91% 0.6 mph ESE1.0 kmh ESE 3.6 mph5.8 kmh 29.96 in1014.6 mb 0.00 in0.0 mm 0.00 in0.0 mm 1.88 in47.8 mm
02:45 PM 61.9°F16.6°C 59.2°F15.1°C 91% 0.4 mph E0.6 kmh E 3.1 mph5.0 kmh 29.96 in1014.6 mb 0.00 in0.0 mm 0.00 in0.0 mm 1.88 in47.8 mm
02:50 PM 61.9°F16.6°C 59.2°F15.1°C 91% 0.9 mph E1.4 kmh E 4.0 mph6.4 kmh 29.96 in1014.6 mb 0.00 in0.0 mm 0.00 in0.0 mm 1.88 in47.8 mm
02:55 PM 62.1°F16.7°C 59.4°F15.2°C 91% 0.9 mph E1.4 kmh E 4.0 mph6.4 kmh 29.96 in1014.6 mb 0.00 in0.0 mm 0.00 in0.0 mm 1.88 in47.8 mm
03:00 PM 62.2°F16.8°C 59.6°F15.3°C 91% 1.3 mph SE2.1 kmh SE 4.3 mph6.9 kmh 29.96 in1014.6 mb 0.00 in0.0 mm 0.00 in0.0 mm 1.88 in47.8 mm
03:05 PM 62.1°F16.7°C 59.4°F15.2°C 91% 1.2 mph SE1.9 kmh SE 4.3 mph6.9 kmh 29.95 in1014.2 mb 0.00 in0.0 mm 0.00 in0.0 mm 1.88 in47.8 mm
03:10 PM 61.9°F16.6°C 59.2°F15.1°C 91% 0.3 mph SE0.5 kmh SE 2.9 mph4.7 kmh 29.96 in1014.6 mb 0.00 in0.0 mm 0.00 in0.0 mm 1.88 in47.8 mm
03:15 PM 61.9°F16.6°C 59.2°F15.1°C 91% 1.0 mph SE1.6 kmh SE 4.7 mph7.6 kmh 29.96 in1014.6 mb 0.00 in0.0 mm 0.00 in0.0 mm 1.88 in47.8 mm
03:20 PM 61.9°F16.6°C 59.2°F15.1°C 91% 1.5 mph SE2.4 kmh SE 4.7 mph7.6 kmh 29.96 in1014.6 mb 0.00 in0.0 mm 0.00 in0.0 mm 1.88 in47.8 mm
03:25 PM 61.9°F16.6°C 59.2°F15.1°C 91% 0.7 mph SE1.1 kmh SE 3.8 mph6.1 kmh 29.96 in1014.6 mb 0.00 in0.0 mm 0.00 in0.0 mm 1.88 in47.8 mm
03:30 PM 61.9°F16.6°C 59.2°F15.1°C 91% 0.1 mph SE0.2 kmh SE 3.8 mph6.1 kmh 29.95 in1014.2 mb 0.00 in0.0 mm 0.00 in0.0 mm 1.88 in47.8 mm
03:35 PM 61.9°F16.6°C 59.2°F15.1°C 91% 0.2 mph SE0.3 kmh SE 2.2 mph3.5 kmh 29.95 in1014.2 mb 0.00 in0.0 mm 0.00 in0.0 mm 1.88 in47.8 mm
03:40 PM 61.9°F16.6°C 59.2°F15.1°C 91% 1.2 mph E1.9 kmh E 4.5 mph7.2 kmh 29.95 in1014.2 mb 0.00 in0.0 mm 0.00 in0.0 mm 1.88 in47.8 mm
03:45 PM 62.1°F16.7°C 59.4°F15.2°C 91% 1.3 mph E2.1 kmh E 4.5 mph7.2 kmh 29.95 in1014.2 mb 0.00 in0.0 mm 0.00 in0.0 mm 1.88 in47.8 mm
03:50 PM 62.1°F16.7°C 59.4°F15.2°C 91% 0.3 mph ENE0.5 kmh ENE 3.4 mph5.5 kmh 29.95 in1014.2 mb 0.00 in0.0 mm 0.00 in0.0 mm 1.88 in47.8 mm
03:55 PM 62.2°F16.8°C 59.6°F15.3°C 91% Calm Calm 1.8 mph2.9 kmh 29.95 in1014.2 mb 0.00 in0.0 mm 0.00 in0.0 mm 1.88 in47.8 mm
04:00 PM 62.2°F16.8°C 59.6°F15.3°C 91% 0.2 mph S0.3 kmh S 2.9 mph4.7 kmh 29.95 in1014.2 mb 0.02 in0.5 mm 0.02 in0.5 mm 1.90 in48.3 mm
04:05 PM 62.2°F16.8°C 59.6°F15.3°C 91% 0.4 mph S0.6 kmh S 2.9 mph4.7 kmh 29.95 in1014.2 mb 0.02 in0.5 mm 0.00 in0.0 mm 1.90 in48.3 mm
04:10 PM 62.4°F16.9°C 59.8°F15.4°C 91% 0.5 mph SE0.8 kmh SE 4.7 mph7.6 kmh 29.95 in1014.2 mb 0.02 in0.5 mm 0.00 in0.0 mm 1.90 in48.3 mm
04:15 PM 62.2°F16.8°C 59.6°F15.3°C 91% 1.1 mph ENE1.8 kmh ENE 5.1 mph8.2 kmh 29.95 in1014.2 mb 0.02 in0.5 mm 0.00 in0.0 mm 1.90 in48.3 mm
04:20 PM 62.2°F16.8°C 59.6°F15.3°C 91% 0.8 mph ENE1.3 kmh ENE 5.1 mph8.2 kmh 29.95 in1014.2 mb 0.02 in0.5 mm 0.00 in0.0 mm 1.90 in48.3 mm
04:25 PM 62.1°F16.7°C 59.4°F15.2°C 91% Calm Calm 0.9 mph1.4 kmh 29.95 in1014.2 mb 0.02 in0.5 mm 0.00 in0.0 mm 1.90 in48.3 mm
04:30 PM 61.9°F16.6°C 59.2°F15.1°C 91% 0.3 mph SE0.5 kmh SE 3.8 mph6.1 kmh 29.95 in1014.2 mb 0.02 in0.5 mm 0.00 in0.0 mm 1.90 in48.3 mm
04:35 PM 61.9°F16.6°C 59.2°F15.1°C 91% 0.4 mph SE0.6 kmh SE 3.8 mph6.1 kmh 29.95 in1014.2 mb 0.02 in0.5 mm 0.00 in0.0 mm 1.90 in48.3 mm
04:40 PM 61.7°F16.5°C 59.0°F15.0°C 91% 0.6 mph SE1.0 kmh SE 2.9 mph4.7 kmh 29.96 in1014.6 mb 0.02 in0.5 mm 0.00 in0.0 mm 1.90 in48.3 mm
04:45 PM 61.7°F16.5°C 59.0°F15.0°C 91% 0.4 mph SE0.6 kmh SE 2.9 mph4.7 kmh 29.96 in1014.6 mb 0.02 in0.5 mm 0.00 in0.0 mm 1.90 in48.3 mm
04:50 PM 61.5°F16.4°C 58.9°F14.9°C 91% 0.1 mph S0.2 kmh S 1.8 mph2.9 kmh 29.96 in1014.6 mb 0.02 in0.5 mm 0.00 in0.0 mm 1.90 in48.3 mm
04:55 PM 61.5°F16.4°C 58.9°F14.9°C 91% 0.1 mph S0.2 kmh S 1.8 mph2.9 kmh 29.96 in1014.6 mb 0.00 in0.0 mm 0.00 in0.0 mm 1.90 in48.3 mm
05:00 PM 61.5°F16.4°C 58.9°F14.9°C 91% Calm Calm 0.7 mph1.1 kmh 29.96 in1014.6 mb 0.00 in0.0 mm 0.00 in0.0 mm 1.90 in48.3 mm
05:05 PM 61.5°F16.4°C 58.9°F14.9°C 91% Calm Calm 0.7 mph1.1 kmh 29.97 in1014.9 mb 0.00 in0.0 mm 0.00 in0.0 mm 1.90 in48.3 mm
05:10 PM 61.5°F16.4°C 58.9°F14.9°C 91% Calm Calm 0.7 mph1.1 kmh 29.96 in1014.6 mb 0.00 in0.0 mm 0.00 in0.0 mm 1.90 in48.3 mm
05:15 PM 61.3°F16.3°C 58.7°F14.8°C 91% Calm Calm -- 29.97 in1014.9 mb 0.00 in0.0 mm 0.00 in0.0 mm 1.90 in48.3 mm
05:20 PM 61.3°F16.3°C 58.7°F14.8°C 91% Calm Calm -- 29.97 in1014.9 mb 0.00 in0.0 mm 0.00 in0.0 mm 1.90 in48.3 mm
05:40 PM 61.2°F16.2°C 58.5°F14.7°C 91% Calm Calm -- 29.97 in1014.9 mb 0.06 in1.5 mm 0.18 in4.6 mm 1.96 in49.8 mm
05:45 PM 61.2°F16.2°C 58.5°F14.7°C 91% Calm Calm -- 29.97 in1014.9 mb 0.06 in1.5 mm 0.00 in0.0 mm 1.96 in49.8 mm
05:50 PM 61.2°F16.2°C 58.5°F14.7°C 91% 0.2 mph ESE0.3 kmh ESE 2.2 mph3.5 kmh 29.97 in1014.9 mb 0.08 in2.0 mm 0.24 in6.1 mm 1.98 in50.3 mm
05:55 PM 61.2°F16.2°C 58.8°F14.9°C 92% 0.2 mph E0.3 kmh E 2.2 mph3.5 kmh 29.97 in1014.9 mb 0.08 in2.0 mm 0.00 in0.0 mm 1.98 in50.3 mm
06:00 PM 61.0°F16.1°C 58.6°F14.8°C 92% Calm Calm 2.2 mph3.5 kmh 29.97 in1014.9 mb 0.08 in2.0 mm 0.00 in0.0 mm 1.98 in50.3 mm
06:05 PM 61.0°F16.1°C 58.6°F14.8°C 92% Calm Calm -- 29.97 in1014.9 mb 0.08 in2.0 mm 0.00 in0.0 mm 1.98 in50.3 mm
06:10 PM 61.0°F16.1°C 58.6°F14.8°C 92% 0.4 mph SE0.6 kmh SE 2.5 mph4.0 kmh 29.97 in1014.9 mb 0.10 in2.5 mm 0.24 in6.1 mm 2.00 in50.8 mm
06:15 PM 61.0°F16.1°C 58.6°F14.8°C 92% 0.6 mph SSE1.0 kmh SSE 2.5 mph4.0 kmh 29.97 in1014.9 mb 0.10 in2.5 mm 0.00 in0.0 mm 2.00 in50.8 mm
06:20 PM 61.0°F16.1°C 58.6°F14.8°C 92% 0.6 mph SE1.0 kmh SE 4.7 mph7.6 kmh 29.97 in1014.9 mb 0.12 in3.0 mm 0.24 in6.1 mm 2.02 in51.3 mm
06:25 PM 61.2°F16.2°C 58.8°F14.9°C 92% 0.6 mph E1.0 kmh E 4.7 mph7.6 kmh 29.97 in1014.9 mb 0.08 in2.0 mm 0.00 in0.0 mm 2.02 in51.3 mm
06:30 PM 61.2°F16.2°C 58.8°F14.9°C 92% 0.2 mph NNW0.3 kmh NNW 3.8 mph6.1 kmh 29.97 in1014.9 mb 0.08 in2.0 mm 0.00 in0.0 mm 2.02 in51.3 mm
06:35 PM 61.2°F16.2°C 58.8°F14.9°C 92% Calm Calm 1.6 mph2.6 kmh 29.97 in1014.9 mb 0.08 in2.0 mm 0.00 in0.0 mm 2.02 in51.3 mm
06:40 PM 61.3°F16.3°C 59.0°F15.0°C 92% 0.2 mph WSW0.3 kmh WSW 1.6 mph2.6 kmh 29.97 in1014.9 mb 0.06 in1.5 mm 0.00 in0.0 mm 2.02 in51.3 mm
06:45 PM 61.2°F16.2°C 58.8°F14.9°C 92% 0.3 mph WSW0.5 kmh WSW 1.6 mph2.6 kmh 29.97 in1014.9 mb 0.06 in1.5 mm 0.00 in0.0 mm 2.02 in51.3 mm
06:50 PM 61.2°F16.2°C 58.8°F14.9°C 92% 0.1 mph WSW0.2 kmh WSW 1.8 mph2.9 kmh 29.97 in1014.9 mb 0.04 in1.0 mm 0.00 in0.0 mm 2.02 in51.3 mm
06:55 PM 61.2°F16.2°C 58.8°F14.9°C 92% Calm Calm 1.8 mph2.9 kmh 29.97 in1014.9 mb 0.04 in1.0 mm 0.00 in0.0 mm 2.02 in51.3 mm
07:00 PM 61.2°F16.2°C 58.8°F14.9°C 92% Calm Calm 1.8 mph2.9 kmh 29.97 in1014.9 mb 0.04 in1.0 mm 0.00 in0.0 mm 2.02 in51.3 mm
07:05 PM 61.0°F16.1°C 58.6°F14.8°C 92% 0.1 mph S0.2 kmh S 1.8 mph2.9 kmh 29.98 in1015.2 mb 0.04 in1.0 mm 0.00 in0.0 mm 2.02 in51.3 mm
07:10 PM 61.0°F16.1°C 58.6°F14.8°C 92% Calm Calm 0.9 mph1.4 kmh 29.98 in1015.2 mb 0.02 in0.5 mm 0.00 in0.0 mm 2.02 in51.3 mm
07:15 PM 61.0°F16.1°C 58.6°F14.8°C 92% Calm Calm -- 29.98 in1015.2 mb 0.02 in0.5 mm 0.00 in0.0 mm 2.02 in51.3 mm
07:20 PM 61.0°F16.1°C 58.6°F14.8°C 92% Calm Calm -- 29.98 in1015.2 mb 0.00 in0.0 mm 0.00 in0.0 mm 2.02 in51.3 mm
07:25 PM 61.0°F16.1°C 58.6°F14.8°C 92% Calm Calm -- 29.98 in1015.2 mb 0.00 in0.0 mm 0.00 in0.0 mm 2.02 in51.3 mm
07:30 PM 60.8°F16.0°C 58.5°F14.7°C 92% Calm Calm 2.0 mph3.2 kmh 29.98 in1015.2 mb 0.00 in0.0 mm 0.00 in0.0 mm 2.02 in51.3 mm
07:35 PM 60.8°F16.0°C 58.5°F14.7°C 92% 0.1 mph ENE0.2 kmh ENE 2.0 mph3.2 kmh 29.98 in1015.2 mb 0.00 in0.0 mm 0.00 in0.0 mm 2.02 in51.3 mm
07:40 PM 60.6°F15.9°C 58.3°F14.6°C 92% Calm Calm 1.3 mph2.1 kmh 29.98 in1015.2 mb 0.00 in0.0 mm 0.00 in0.0 mm 2.02 in51.3 mm
07:45 PM 60.6°F15.9°C 58.3°F14.6°C 92% 0.1 mph ESE0.2 kmh ESE 1.3 mph2.1 kmh 29.98 in1015.2 mb 0.00 in0.0 mm 0.00 in0.0 mm 2.02 in51.3 mm
07:50 PM 60.6°F15.9°C 58.3°F14.6°C 92% 0.1 mph ESE0.2 kmh ESE 1.3 mph2.1 kmh 29.98 in1015.2 mb 0.00 in0.0 mm 0.00 in0.0 mm 2.02 in51.3 mm
07:55 PM 60.6°F15.9°C 58.6°F14.8°C 93% Calm Calm -- 29.98 in1015.2 mb 0.00 in0.0 mm 0.00 in0.0 mm 2.02 in51.3 mm
08:00 PM 60.6°F15.9°C 58.6°F14.8°C 93% Calm Calm -- 29.99 in1015.6 mb 0.00 in0.0 mm 0.00 in0.0 mm 2.02 in51.3 mm
08:05 PM 60.4°F15.8°C 58.4°F14.7°C 93% Calm Calm -- 29.99 in1015.6 mb 0.00 in0.0 mm 0.00 in0.0 mm 2.02 in51.3 mm
08:10 PM 60.4°F15.8°C 58.4°F14.7°C 93% Calm Calm -- 30.00 in1015.9 mb 0.00 in0.0 mm 0.00 in0.0 mm 2.02 in51.3 mm
08:15 PM 60.4°F15.8°C 58.4°F14.7°C 93% Calm Calm -- 29.99 in1015.6 mb 0.00 in0.0 mm 0.00 in0.0 mm 2.02 in51.3 mm
08:20 PM 60.4°F15.8°C 58.4°F14.7°C 93% Calm Calm -- 30.00 in1015.9 mb 0.00 in0.0 mm 0.00 in0.0 mm 2.02 in51.3 mm
08:25 PM 60.4°F15.8°C 58.4°F14.7°C 93% Calm Calm -- 30.01 in1016.3 mb 0.00 in0.0 mm 0.00 in0.0 mm 2.02 in51.3 mm
08:30 PM 60.4°F15.8°C 58.4°F14.7°C 93% Calm Calm -- 30.01 in1016.3 mb 0.00 in0.0 mm 0.00 in0.0 mm 2.02 in51.3 mm
08:35 PM 60.4°F15.8°C 58.4°F14.7°C 93% Calm Calm -- 30.02 in1016.6 mb 0.00 in0.0 mm 0.00 in0.0 mm 2.02 in51.3 mm
08:40 PM 60.4°F15.8°C 58.4°F14.7°C 93% Calm Calm -- 30.02 in1016.6 mb 0.00 in0.0 mm 0.00 in0.0 mm 2.02 in51.3 mm
08:45 PM 60.4°F15.8°C 58.4°F14.7°C 93% Calm Calm -- 30.01 in1016.3 mb 0.00 in0.0 mm 0.00 in0.0 mm 2.02 in51.3 mm
08:50 PM 60.3°F15.7°C 58.2°F14.6°C 93% Calm Calm 0.7 mph1.1 kmh 30.01 in1016.3 mb 0.00 in0.0 mm 0.00 in0.0 mm 2.02 in51.3 mm
08:55 PM 60.1°F15.6°C 58.0°F14.4°C 93% 0.1 mph WNW0.2 kmh WNW 1.8 mph2.9 kmh 30.01 in1016.3 mb 0.00 in0.0 mm 0.00 in0.0 mm 2.02 in51.3 mm
09:00 PM 60.1°F15.6°C 58.0°F14.4°C 93% 0.6 mph W1.0 kmh W 2.9 mph4.7 kmh 30.01 in1016.3 mb 0.00 in0.0 mm 0.00 in0.0 mm 2.02 in51.3 mm
09:05 PM 59.9°F15.5°C 57.9°F14.4°C 93% 0.8 mph WSW1.3 kmh WSW 3.6 mph5.8 kmh 30.01 in1016.3 mb 0.00 in0.0 mm 0.00 in0.0 mm 2.02 in51.3 mm
09:10 PM 59.7°F15.4°C 57.4°F14.1°C 92% 0.3 mph W0.5 kmh W 3.6 mph5.8 kmh 30.01 in1016.3 mb 0.00 in0.0 mm 0.00 in0.0 mm 2.02 in51.3 mm
09:15 PM 59.5°F15.3°C 57.2°F14.0°C 92% Calm Calm -- 30.01 in1016.3 mb 0.00 in0.0 mm 0.00 in0.0 mm 2.02 in51.3 mm
09:20 PM 59.5°F15.3°C 57.2°F14.0°C 92% 0.2 mph WSW0.3 kmh WSW 2.5 mph4.0 kmh 30.02 in1016.6 mb 0.00 in0.0 mm 0.00 in0.0 mm 2.02 in51.3 mm
09:25 PM 59.2°F15.1°C 56.9°F13.8°C 92% 0.4 mph SW0.6 kmh SW 2.9 mph4.7 kmh 30.02 in1016.6 mb 0.00 in0.0 mm 0.00 in0.0 mm 2.02 in51.3 mm
09:30 PM 59.2°F15.1°C 56.9°F13.8°C 92% 0.2 mph S0.3 kmh S 2.9 mph4.7 kmh 30.02 in1016.6 mb 0.00 in0.0 mm 0.00 in0.0 mm 2.02 in51.3 mm
09:35 PM 59.0°F15.0°C 56.7°F13.7°C 92% 0.6 mph WSW1.0 kmh WSW 2.9 mph4.7 kmh 30.02 in1016.6 mb 0.00 in0.0 mm 0.00 in0.0 mm 2.02 in51.3 mm
09:40 PM 58.8°F14.9°C 56.5°F13.6°C 92% 0.9 mph WSW1.4 kmh WSW 2.9 mph4.7 kmh 30.02 in1016.6 mb 0.00 in0.0 mm 0.00 in0.0 mm 2.02 in51.3 mm
09:45 PM 58.8°F14.9°C 56.5°F13.6°C 92% 0.4 mph WSW0.6 kmh WSW 2.9 mph4.7 kmh 30.03 in1016.9 mb 0.00 in0.0 mm 0.00 in0.0 mm 2.02 in51.3 mm
09:50 PM 58.8°F14.9°C 56.5°F13.6°C 92% Calm Calm 0.9 mph1.4 kmh 30.03 in1016.9 mb 0.00 in0.0 mm 0.00 in0.0 mm 2.02 in51.3 mm
09:55 PM 58.6°F14.8°C 56.3°F13.5°C 92% Calm Calm 1.1 mph1.8 kmh 30.03 in1016.9 mb 0.00 in0.0 mm 0.00 in0.0 mm 2.02 in51.3 mm
10:00 PM 58.6°F14.8°C 56.6°F13.7°C 93% 0.2 mph ESE0.3 kmh ESE 2.0 mph3.2 kmh 30.02 in1016.6 mb 0.00 in0.0 mm 0.00 in0.0 mm 2.02 in51.3 mm
10:05 PM 58.6°F14.8°C 56.6°F13.7°C 93% 0.2 mph SE0.3 kmh SE 2.0 mph3.2 kmh 30.03 in1016.9 mb 0.00 in0.0 mm 0.00 in0.0 mm 2.02 in51.3 mm
10:10 PM 58.5°F14.7°C 56.4°F13.6°C 93% 0.4 mph WNW0.6 kmh WNW 2.0 mph3.2 kmh 30.03 in1016.9 mb 0.02 in0.5 mm 0.24 in6.1 mm 2.04 in51.8 mm
10:15 PM 58.3°F14.6°C 56.3°F13.5°C 93% 0.3 mph WNW0.5 kmh WNW 2.0 mph3.2 kmh 30.03 in1016.9 mb 0.02 in0.5 mm 0.00 in0.0 mm 2.04 in51.8 mm
10:20 PM 58.3°F14.6°C 56.3°F13.5°C 93% Calm Calm -- 30.03 in1016.9 mb 0.02 in0.5 mm 0.00 in0.0 mm 2.04 in51.8 mm
10:25 PM 58.1°F14.5°C 56.1°F13.4°C 93% Calm Calm -- 30.04 in1017.3 mb 0.02 in0.5 mm 0.00 in0.0 mm 2.04 in51.8 mm
10:30 PM 58.1°F14.5°C 56.1°F13.4°C 93% Calm Calm -- 30.04 in1017.3 mb 0.02 in0.5 mm 0.00 in0.0 mm 2.04 in51.8 mm
10:35 PM 58.1°F14.5°C 56.1°F13.4°C 93% Calm Calm -- 30.04 in1017.3 mb 0.02 in0.5 mm 0.00 in0.0 mm 2.04 in51.8 mm
10:40 PM 57.9°F14.4°C 55.9°F13.3°C 93% Calm Calm -- 30.04 in1017.3 mb 0.02 in0.5 mm 0.00 in0.0 mm 2.04 in51.8 mm
10:45 PM 57.9°F14.4°C 55.9°F13.3°C 93% Calm Calm -- 30.04 in1017.3 mb 0.02 in0.5 mm 0.00 in0.0 mm 2.04 in51.8 mm
10:50 PM 57.9°F14.4°C 55.9°F13.3°C 93% Calm Calm -- 30.04 in1017.3 mb 0.02 in0.5 mm 0.00 in0.0 mm 2.04 in51.8 mm
10:55 PM 57.9°F14.4°C 55.9°F13.3°C 93% Calm Calm -- 30.04 in1017.3 mb 0.02 in0.5 mm 0.00 in0.0 mm 2.04 in51.8 mm
11:00 PM 57.9°F14.4°C 55.9°F13.3°C 93% 0.1 mph SW0.2 kmh SW 1.3 mph2.1 kmh 30.04 in1017.3 mb 0.02 in0.5 mm 0.00 in0.0 mm 1.47 in37.3 mm
11:05 PM 57.7°F14.3°C 55.7°F13.2°C 93% 0.1 mph SW0.2 kmh SW 1.3 mph2.1 kmh 30.04 in1017.3 mb 0.02 in0.5 mm 0.00 in0.0 mm 1.47 in37.3 mm
11:10 PM 57.7°F14.3°C 55.7°F13.2°C 93% Calm Calm 0.9 mph1.4 kmh 30.04 in1017.3 mb 0.00 in0.0 mm 0.00 in0.0 mm 1.47 in37.3 mm
11:15 PM 57.7°F14.3°C 55.7°F13.2°C 93% 0.1 mph WSW0.2 kmh WSW 1.8 mph2.9 kmh 30.04 in1017.3 mb 0.00 in0.0 mm 0.00 in0.0 mm 1.47 in37.3 mm
11:20 PM 57.6°F14.2°C 55.6°F13.1°C 93% 0.3 mph WSW0.5 kmh WSW 2.2 mph3.5 kmh 30.04 in1017.3 mb 0.00 in0.0 mm 0.00 in0.0 mm 1.47 in37.3 mm
11:25 PM 57.4°F14.1°C 55.4°F13.0°C 93% 0.3 mph WSW0.5 kmh WSW 2.2 mph3.5 kmh 30.05 in1017.6 mb 0.00 in0.0 mm 0.00 in0.0 mm 1.47 in37.3 mm
11:30 PM 57.4°F14.1°C 55.4°F13.0°C 93% 0.1 mph W0.2 kmh W 1.6 mph2.6 kmh 30.05 in1017.6 mb 0.00 in0.0 mm 0.00 in0.0 mm 1.47 in37.3 mm
11:35 PM 57.4°F14.1°C 55.4°F13.0°C 93% Calm Calm 1.3 mph2.1 kmh 30.04 in1017.3 mb 0.00 in0.0 mm 0.00 in0.0 mm 1.47 in37.3 mm
11:40 PM 57.0°F13.9°C 55.0°F12.8°C 93% 0.2 mph WSW0.3 kmh WSW 3.1 mph5.0 kmh 30.05 in1017.6 mb 0.02 in0.5 mm 0.24 in6.1 mm 0.02 in0.5 mm
11:45 PM 57.0°F13.9°C 55.0°F12.8°C 93% 0.3 mph WSW0.5 kmh WSW 3.1 mph5.0 kmh 30.05 in1017.6 mb 0.02 in0.5 mm 0.00 in0.0 mm 0.02 in0.5 mm
11:50 PM 57.0°F13.9°C 55.0°F12.8°C 93% 0.2 mph W0.3 kmh W 2.5 mph4.0 kmh 30.06 in1017.9 mb 0.02 in0.5 mm 0.00 in0.0 mm 0.02 in0.5 mm
11:55 PM 57.0°F13.9°C 55.0°F12.8°C 93% 0.3 mph SSW0.5 kmh SSW 2.7 mph4.3 kmh 30.05 in1017.6 mb 0.02 in0.5 mm 0.00 in0.0 mm 0.02 in0.5 mm